createdAt,value
2023-04-08T00:00:07.785Z,6.97
2023-04-08T00:05:29.746Z,6.40
2023-04-08T00:10:51.590Z,7.03
2023-04-08T00:16:13.513Z,7.05
2023-04-08T00:21:35.453Z,6.75
2023-04-08T00:26:57.346Z,6.65
2023-04-08T00:32:19.262Z,7.47
2023-04-08T00:37:41.207Z,8.05
2023-04-08T00:43:03.116Z,7.82
2023-04-08T00:48:25.197Z,8.40
2023-04-08T00:53:47.288Z,8.88
2023-04-08T00:59:09.313Z,8.70
2023-04-08T01:04:56.019Z,9.93
2023-04-08T01:10:22.543Z,8.73
2023-04-08T01:21:08.044Z,9.35
2023-04-08T01:26:30.871Z,9.95
2023-04-08T01:31:54.085Z,9.40
2023-04-08T01:37:16.710Z,10.10
2023-04-08T01:42:40.635Z,10.18
2023-04-08T01:48:03.435Z,10.10
2023-04-08T01:53:25.586Z,10.93
2023-04-08T01:58:52.713Z,10.32
2023-04-08T02:04:14.992Z,10.02
2023-04-08T02:09:37.089Z,9.90
2023-04-08T02:14:59.125Z,9.65
2023-04-08T02:20:27.311Z,9.65
2023-04-08T02:25:50.392Z,9.07
2023-04-08T02:31:13.048Z,9.63
2023-04-08T02:36:35.194Z,9.80
2023-04-08T02:41:57.140Z,10.25
2023-04-08T02:47:18.984Z,10.13
2023-04-08T02:52:40.829Z,9.98
2023-04-08T02:58:02.733Z,10.25
2023-04-08T03:03:24.674Z,10.35
2023-04-08T03:08:46.594Z,10.60
2023-04-08T03:14:08.575Z,10.82
2023-04-08T03:19:30.442Z,11.13
2023-04-08T03:24:52.463Z,11.02
2023-04-08T03:30:14.411Z,11.32
2023-04-08T03:35:36.717Z,10.88
2023-04-08T03:40:58.704Z,10.95
2023-04-08T03:46:20.589Z,11.38
2023-04-08T03:51:42.496Z,11.05
2023-04-08T03:57:04.444Z,11.35
2023-04-08T04:02:26.569Z,11.07
2023-04-08T04:07:48.673Z,10.70
2023-04-08T04:13:10.641Z,10.02
2023-04-08T04:18:32.537Z,10.38
2023-04-08T04:23:54.751Z,9.43
2023-04-08T04:29:16.641Z,10.02
2023-04-08T04:34:38.752Z,9.05
2023-04-08T04:40:00.579Z,9.35
2023-04-08T04:45:22.437Z,9.48
2023-04-08T04:50:44.425Z,8.63
2023-04-08T04:56:06.491Z,8.25
2023-04-08T05:01:28.478Z,8.18
2023-04-08T05:06:50.615Z,9.38
2023-04-08T05:12:12.479Z,9.40
2023-04-08T05:17:34.354Z,8.85
2023-04-08T05:22:56.353Z,9.25
2023-04-08T05:28:18.237Z,8.90
2023-04-08T05:33:40.035Z,9.07
2023-04-08T05:39:03.321Z,8.63
2023-04-08T05:44:25.468Z,8.35
2023-04-08T05:49:47.887Z,8.60
2023-04-08T05:55:11.760Z,7.97
2023-04-08T06:00:33.903Z,8.02
2023-04-08T06:05:55.814Z,7.55
2023-04-08T06:11:18.310Z,7.13
2023-04-08T06:16:40.193Z,7.75
2023-04-08T06:22:02.076Z,7.15
2023-04-08T06:27:24.028Z,7.18
2023-04-08T06:32:45.961Z,7.15
2023-04-08T06:38:07.825Z,6.00
2023-04-08T06:43:29.709Z,6.07
2023-04-08T06:48:51.869Z,4.82
2023-04-08T06:54:13.970Z,5.47
2023-04-08T06:59:35.805Z,5.00
2023-04-08T07:04:57.675Z,5.10
2023-04-08T07:10:19.625Z,5.13
2023-04-08T07:15:41.650Z,4.90
2023-04-08T07:21:03.683Z,4.28
2023-04-08T07:26:25.576Z,4.68
2023-04-08T07:31:47.472Z,4.93
2023-04-08T07:37:09.396Z,4.32
2023-04-08T07:42:31.256Z,4.43
2023-04-08T07:47:53.126Z,4.90
2023-04-08T07:53:15.106Z,4.85
2023-04-08T07:58:37.172Z,5.15
2023-04-08T08:03:59.515Z,5.55
2023-04-08T08:09:21.660Z,4.90
2023-04-08T08:14:43.566Z,4.90
2023-04-08T08:20:06.327Z,6.75
2023-04-08T08:25:28.201Z,5.00
2023-04-08T08:30:50.050Z,5.05
2023-04-08T08:36:12.164Z,5.07
2023-04-08T08:41:34.694Z,5.60
2023-04-08T08:46:56.725Z,5.68
2023-04-08T08:52:18.823Z,5.68
2023-04-08T08:57:40.700Z,5.45
2023-04-08T09:03:19.120Z,5.05
2023-04-08T09:08:41.471Z,5.32
2023-04-08T09:14:03.540Z,5.80
2023-04-08T09:19:25.394Z,4.93
2023-04-08T09:24:47.613Z,5.38
2023-04-08T09:30:18.804Z,5.60
2023-04-08T09:35:40.768Z,5.32
2023-04-08T09:41:07.560Z,7.75
2023-04-08T09:46:36.700Z,4.70
2023-04-08T09:52:07.395Z,5.05
2023-04-08T09:57:50.491Z,5.35
2023-04-08T10:03:30.063Z,5.28
2023-04-08T10:08:52.091Z,5.70
2023-04-08T10:14:13.972Z,5.28
2023-04-08T10:19:40.044Z,5.20
2023-04-08T10:25:17.658Z,5.25
2023-04-08T10:30:41.465Z,4.88
2023-04-08T10:36:11.863Z,5.20
2023-04-08T10:41:33.859Z,5.05
2023-04-08T10:46:55.863Z,4.70
2023-04-08T10:52:17.781Z,5.72
2023-04-08T10:57:39.718Z,5.30
2023-04-08T11:03:07.005Z,4.60
2023-04-08T11:08:33.862Z,4.53
2023-04-08T11:13:57.103Z,4.95
2023-04-08T11:19:20.037Z,5.18
2023-04-08T11:24:42.337Z,4.13
2023-04-08T11:30:04.852Z,3.95
2023-04-08T11:35:30.282Z,4.28
2023-04-08T11:40:56.283Z,4.25
2023-04-08T11:46:18.257Z,4.17
2023-04-08T11:52:00.121Z,4.00
2023-04-08T11:57:30.891Z,3.85
2023-04-08T12:02:52.865Z,3.95
2023-04-08T12:08:14.824Z,4.63
2023-04-08T12:13:36.680Z,4.38
2023-04-08T12:18:58.534Z,4.40
2023-04-08T12:24:20.469Z,3.97
2023-04-08T12:29:42.484Z,3.95
2023-04-08T12:35:04.711Z,3.85
2023-04-08T12:40:26.516Z,3.70
2023-04-08T12:45:48.411Z,3.58
2023-04-08T12:51:10.406Z,4.13
2023-04-08T12:56:32.452Z,3.88
2023-04-08T13:01:54.572Z,4.35
2023-04-08T13:07:16.516Z,3.80
2023-04-08T13:12:38.346Z,4.22
2023-04-08T13:18:00.292Z,3.95
2023-04-08T13:23:22.123Z,3.90
2023-04-08T13:28:55.901Z,3.97
2023-04-08T13:34:18.911Z,3.60
2023-04-08T13:39:40.740Z,3.50
2023-04-08T13:45:02.733Z,3.47
2023-04-08T13:50:24.697Z,4.32
2023-04-08T13:55:46.511Z,4.72
2023-04-08T14:01:08.392Z,4.95
2023-04-08T14:06:30.230Z,5.05
2023-04-08T14:11:52.086Z,4.80
2023-04-08T14:17:14.102Z,4.35
2023-04-08T14:22:36.079Z,4.72
2023-04-08T14:27:59.023Z,4.55
2023-04-08T14:33:20.977Z,4.30
2023-04-08T14:38:42.780Z,4.43
2023-04-08T14:44:04.795Z,3.92
2023-04-08T14:49:26.725Z,3.92
2023-04-08T14:54:48.741Z,2.97
2023-04-08T15:00:11.012Z,3.28
2023-04-08T15:05:35.462Z,3.30
2023-04-08T15:10:58.523Z,3.30
2023-04-08T15:16:20.439Z,3.95
2023-04-08T15:21:42.345Z,4.38
2023-04-08T15:27:04.190Z,4.60
2023-04-08T15:32:26.295Z,4.93
2023-04-08T15:37:48.161Z,4.47
2023-04-08T15:43:10.121Z,4.70
2023-04-08T15:48:32.014Z,5.20
2023-04-08T15:53:53.840Z,4.93
2023-04-08T15:59:15.691Z,5.18
2023-04-08T16:04:37.637Z,4.50
2023-04-08T16:09:59.546Z,5.95
2023-04-08T16:15:21.487Z,5.28
2023-04-08T16:20:43.355Z,5.22
2023-04-08T16:26:05.530Z,4.90
2023-04-08T16:31:27.400Z,4.50
2023-04-08T16:36:49.333Z,4.75
2023-04-08T16:42:11.228Z,4.85
2023-04-08T16:47:33.836Z,5.28
2023-04-08T16:52:55.855Z,4.68
2023-04-08T16:58:17.693Z,5.93
2023-04-08T17:03:39.988Z,5.38
2023-04-08T17:09:02.671Z,4.65
2023-04-08T17:14:24.701Z,4.65
2023-04-08T17:19:46.618Z,4.15
2023-04-08T17:25:08.855Z,4.13
2023-04-08T17:30:30.702Z,5.00
2023-04-08T17:35:53.361Z,4.88
2023-04-08T17:41:21.582Z,4.53
2023-04-08T17:46:52.064Z,5.28
2023-04-08T17:52:13.879Z,5.90
2023-04-08T17:57:35.764Z,5.10
2023-04-08T18:02:57.783Z,4.47
2023-04-08T18:08:19.770Z,5.35
2023-04-08T18:13:41.671Z,6.30
2023-04-08T18:19:03.519Z,5.78
2023-04-08T18:24:25.392Z,5.97
2023-04-08T18:29:47.216Z,6.07
2023-04-08T18:35:09.660Z,7.50
2023-04-08T18:40:31.624Z,7.65
2023-04-08T18:45:53.477Z,8.57
2023-04-08T18:51:16.009Z,9.55
2023-04-08T18:56:37.905Z,9.52
2023-04-08T19:01:59.932Z,9.75
2023-04-08T19:07:22.061Z,11.02
2023-04-08T19:12:43.913Z,10.70
2023-04-08T19:18:05.813Z,9.82
2023-04-08T19:23:27.641Z,10.65
2023-04-08T19:28:49.884Z,10.02
2023-04-08T19:34:11.916Z,10.60
2023-04-08T19:39:33.900Z,10.90
2023-04-08T19:44:55.832Z,11.07
2023-04-08T19:50:17.694Z,10.90
2023-04-08T19:55:39.557Z,10.68
2023-04-08T20:01:01.494Z,10.45
2023-04-08T20:06:23.339Z,12.18
2023-04-08T20:11:45.265Z,12.25
2023-04-08T20:17:07.330Z,13.38
2023-04-08T20:22:29.150Z,15.68
2023-04-08T20:27:50.992Z,16.67
2023-04-08T20:33:12.926Z,16.33
2023-04-08T20:38:34.717Z,17.85
2023-04-08T20:43:56.519Z,18.48
2023-04-08T20:49:18.799Z,16.83
2023-04-08T20:54:40.662Z,16.60
2023-04-08T21:00:03.043Z,13.45
2023-04-08T21:05:25.221Z,12.23
2023-04-08T21:10:47.143Z,12.70
2023-04-08T21:16:09.338Z,13.95
2023-04-08T21:21:31.155Z,11.77
2023-04-08T21:26:53.434Z,11.57
2023-04-08T21:32:15.310Z,11.48
2023-04-08T21:37:37.279Z,12.32
2023-04-08T21:42:59.511Z,12.60
2023-04-08T21:48:21.441Z,11.90
2023-04-08T21:53:43.702Z,11.88
2023-04-08T21:59:05.640Z,11.10
2023-04-08T22:04:27.478Z,11.75
2023-04-08T22:09:49.284Z,12.73
2023-04-08T22:15:11.451Z,11.98
2023-04-08T22:20:33.281Z,13.43
2023-04-08T22:25:55.158Z,13.23
2023-04-08T22:31:17.022Z,12.20
2023-04-08T22:36:38.869Z,13.70
2023-04-08T22:42:00.705Z,12.20
2023-04-08T22:47:22.582Z,12.60
2023-04-08T22:52:44.420Z,12.32
2023-04-08T22:58:06.327Z,11.98
2023-04-08T23:03:28.272Z,11.77
2023-04-08T23:08:50.291Z,11.60
2023-04-08T23:14:12.353Z,10.50
2023-04-08T23:19:34.160Z,10.27
2023-04-08T23:24:56.344Z,10.32
2023-04-08T23:30:18.360Z,10.80
2023-04-08T23:35:40.241Z,10.57
2023-04-08T23:41:02.057Z,9.88
2023-04-08T23:46:23.910Z,11.40
2023-04-08T23:51:45.754Z,10.65
2023-04-08T23:57:07.575Z,10.52
